Time,TemperatureF,DewpointF,PressureIn,WindDirection,WindDirectionDegrees,WindSpeedMPH,WindSpeedGustMPH,Humidity,HourlyPrecipIn,Conditions,Clouds,dailyrainin,SoftwareType,DateUTC
2013-01-31 00:00:00,63.5,61.8,29.32,West,267,0.0,5.0,94,0.23,,---,0.23,VWS V14.01,2013-01-31 05:00:00,
2013-01-31 00:01:00,63.2,61.8,29.32,SSW,200,0.0,5.0,95,0.24,,---,0.24,VWS V14.01,2013-01-31 05:01:00,
2013-01-31 00:02:00,63.2,61.8,29.38,South,185,0.0,6.0,95,0.24,,---,0.24,VWS V14.01,2013-01-31 05:02:00,
2013-01-31 00:05:00,62.3,61.2,29.38,North,3,0.0,6.0,96,0.24,,---,0.01,VWS V14.01,2013-01-31 05:05:00,
2013-01-31 00:07:00,62.4,61.2,29.38,ESE,104,0.0,6.0,96,0.24,,---,0.01,VWS V14.01,2013-01-31 05:07:00,
2013-01-31 00:10:00,61.8,61.2,29.38,SSE,148,0.0,10.0,98,0.25,,---,0.02,VWS V14.01,2013-01-31 05:10:00,
2013-01-31 00:12:00,62.0,61.4,29.38,South,178,10.0,10.0,98,0.25,,---,0.02,VWS V14.01,2013-01-31 05:12:00,
2013-01-31 00:15:00,60.7,59.8,29.40,East,82,0.0,16.0,97,0.26,,---,0.03,VWS V14.01,2013-01-31 05:15:00,
2013-01-31 00:17:00,60.9,60.0,29.40,North,3,8.0,16.0,97,0.26,,---,0.03,VWS V14.01,2013-01-31 05:17:00,
2013-01-31 00:20:00,60.1,59.2,29.40,WSW,240,0.0,1.0,97,0.27,,---,0.04,VWS V14.01,2013-01-31 05:20:00,
2013-01-31 00:22:00,60.1,59.2,29.40,NW,304,0.0,1.0,97,0.27,,---,0.04,VWS V14.01,2013-01-31 05:22:00,
2013-01-31 00:25:00,59.5,58.9,29.40,ENE,65,0.0,9.0,98,0.27,,---,0.04,VWS V14.01,2013-01-31 05:25:00,
2013-01-31 00:27:00,59.5,58.9,29.40,NNE,16,0.0,0.0,98,0.27,,---,0.04,VWS V14.01,2013-01-31 05:27:00,
2013-01-31 00:30:00,59.0,58.4,29.41,SSW,193,0.0,6.0,98,0.28,,---,0.05,VWS V14.01,2013-01-31 05:30:00,
2013-01-31 00:32:00,59.0,58.4,29.41,East,88,0.0,6.0,98,0.28,,---,0.05,VWS V14.01,2013-01-31 05:32:00,
2013-01-31 00:35:00,58.7,58.1,29.41,SW,224,0.0,0.0,98,0.28,,---,0.05,VWS V14.01,2013-01-31 05:35:00,
2013-01-31 00:37:00,58.7,58.1,29.41,West,261,0.0,0.0,98,0.28,,---,0.05,VWS V14.01,2013-01-31 05:37:00,
2013-01-31 00:40:00,58.3,57.7,29.41,SW,223,0.0,5.0,98,0.28,,---,0.05,VWS V14.01,2013-01-31 05:40:00,
2013-01-31 00:42:00,58.3,57.7,29.41,SE,133,0.0,5.0,98,0.28,,---,0.05,VWS V14.01,2013-01-31 05:42:00,
2013-01-31 00:45:00,57.6,57.0,29.41,WSW,257,0.0,3.0,98,0.28,,---,0.05,VWS V14.01,2013-01-31 05:45:00,
2013-01-31 00:47:00,57.6,57.0,29.41,North,353,0.0,3.0,98,0.28,,---,0.05,VWS V14.01,2013-01-31 05:47:00,
2013-01-31 00:50:00,57.2,56.6,29.41,NNE,31,0.0,6.0,98,0.28,,---,0.05,VWS V14.01,2013-01-31 05:50:00,
2013-01-31 00:52:00,57.2,56.6,29.41,SW,217,6.0,6.0,98,0.28,,---,0.05,VWS V14.01,2013-01-31 05:52:00,
2013-01-31 00:55:00,56.9,56.3,29.41,NNE,20,0.0,7.0,98,0.28,,---,0.05,VWS V14.01,2013-01-31 05:55:00,
2013-01-31 00:57:00,57.0,56.4,29.41,WNW,302,0.0,0.0,98,0.28,,---,0.05,VWS V14.01,2013-01-31 05:57:00,
2013-01-31 01:00:00,56.6,56.0,29.43,WSW,256,0.0,7.0,98,0.08,,---,0.06,VWS V14.01,2013-01-31 06:00:00,
2013-01-31 01:02:00,56.6,56.0,29.43,WSW,257,0.0,7.0,98,0.08,,---,0.06,VWS V14.01,2013-01-31 06:02:00,
2013-01-31 01:05:00,56.2,55.7,29.43,SSE,148,0.0,10.0,98,0.07,,---,0.07,VWS V14.01,2013-01-31 06:05:00,
2013-01-31 01:07:00,56.3,55.8,29.43,ENE,58,0.0,10.0,98,0.07,,---,0.07,VWS V14.01,2013-01-31 06:07:00,
2013-01-31 01:10:00,56.0,55.7,29.43,South,179,0.0,7.0,99,0.06,,---,0.07,VWS V14.01,2013-01-31 06:10:00,
2013-01-31 01:12:00,56.0,55.7,29.43,WSW,256,0.0,7.0,99,0.06,,---,0.07,VWS V14.01,2013-01-31 06:12:00,
2013-01-31 01:15:00,55.6,55.3,29.42,North,0,0.0,0.0,99,0.07,,---,0.09,VWS V14.01,2013-01-31 06:15:00,
2013-01-31 01:17:00,55.6,55.3,29.42,North,0,0.0,0.0,99,0.07,,---,0.09,VWS V14.01,2013-01-31 06:17:00,
2013-01-31 01:20:00,55.1,54.8,29.42,NW,318,0.0,7.0,99,0.08,,---,0.11,VWS V14.01,2013-01-31 06:20:00,
2013-01-31 01:22:00,55.3,55.0,29.42,NW,322,0.0,7.0,99,0.08,,---,0.11,VWS V14.01,2013-01-31 06:22:00,
2013-01-31 01:25:00,54.7,54.4,29.42,South,189,0.0,6.0,99,0.08,,---,0.12,VWS V14.01,2013-01-31 06:25:00,
2013-01-31 01:27:00,54.8,54.5,29.42,SSW,192,0.0,6.0,99,0.08,,---,0.12,VWS V14.01,2013-01-31 06:27:00,
2013-01-31 01:30:00,54.2,53.9,29.42,North,7,0.0,8.0,99,0.08,,---,0.12,VWS V14.01,2013-01-31 06:30:00,
2013-01-31 01:32:00,54.4,54.1,29.42,SSW,206,0.0,8.0,99,0.08,,---,0.12,VWS V14.01,2013-01-31 06:32:00,
2013-01-31 01:35:00,53.9,53.6,29.42,SSW,198,0.0,0.0,99,0.08,,---,0.13,VWS V14.01,2013-01-31 06:35:00,
2013-01-31 01:37:00,54.1,53.8,29.42,South,179,0.0,0.0,99,0.08,,---,0.13,VWS V14.01,2013-01-31 06:37:00,
2013-01-31 01:40:00,53.6,53.3,29.42,SW,226,0.0,5.0,99,0.09,,---,0.14,VWS V14.01,2013-01-31 06:40:00,
2013-01-31 01:42:00,53.6,53.3,29.42,SW,226,0.0,5.0,99,0.09,,---,0.14,VWS V14.01,2013-01-31 06:42:00,
2013-01-31 01:45:00,53.3,53.0,29.42,West,265,0.0,8.0,99,0.10,,---,0.15,VWS V14.01,2013-01-31 06:45:00,
2013-01-31 01:47:00,53.3,53.0,29.42,SSW,209,0.0,8.0,99,0.10,,---,0.15,VWS V14.01,2013-01-31 06:47:00,
2013-01-31 01:50:00,53.1,52.8,29.42,SSE,157,1.0,8.0,99,0.10,,---,0.15,VWS V14.01,2013-01-31 06:50:00,
2013-01-31 01:52:00,53.2,52.9,29.42,SW,224,0.0,0.0,99,0.10,,---,0.15,VWS V14.01,2013-01-31 06:52:00,
2013-01-31 01:55:00,52.9,52.6,29.42,SSW,195,0.0,7.0,99,0.10,,---,0.15,VWS V14.01,2013-01-31 06:55:00,
2013-01-31 01:57:00,52.9,52.6,29.42,South,175,0.0,7.0,99,0.10,,---,0.15,VWS V14.01,2013-01-31 06:57:00,
2013-01-31 02:00:00,52.6,52.3,29.42,SW,233,0.0,6.0,99,0.10,,---,0.15,VWS V14.01,2013-01-31 07:00:00,
2013-01-31 02:02:00,52.8,52.5,29.42,SSW,196,0.0,0.0,99,0.10,,---,0.15,VWS V14.01,2013-01-31 07:02:00,
2013-01-31 02:05:00,52.3,52.0,29.42,SW,226,4.0,7.0,99,0.09,,---,0.15,VWS V14.01,2013-01-31 07:05:00,
2013-01-31 02:07:00,52.5,52.2,29.42,SW,216,0.0,7.0,99,0.09,,---,0.15,VWS V14.01,2013-01-31 07:07:00,
2013-01-31 02:10:00,52.2,51.9,29.42,South,174,10.0,10.0,99,0.08,,---,0.15,VWS V14.01,2013-01-31 07:10:00,
2013-01-31 02:12:00,52.2,51.9,29.42,South,178,0.0,10.0,99,0.08,,---,0.15,VWS V14.01,2013-01-31 07:12:00,
2013-01-31 02:15:00,52.0,51.7,29.42,SW,217,0.0,10.0,99,0.08,,---,0.15,VWS V14.01,2013-01-31 07:15:00,
2013-01-31 02:17:00,52.0,51.7,29.42,SW,217,0.0,10.0,99,0.08,,---,0.15,VWS V14.01,2013-01-31 07:17:00,
2013-01-31 02:20:00,51.9,51.6,29.42,South,184,0.0,6.0,99,0.06,,---,0.15,VWS V14.01,2013-01-31 07:20:00,
2013-01-31 02:22:00,51.9,51.6,29.42,ESE,112,0.0,6.0,99,0.06,,---,0.15,VWS V14.01,2013-01-31 07:22:00,
2013-01-31 02:25:00,51.7,51.4,29.42,SW,236,0.0,10.0,99,0.04,,---,0.15,VWS V14.01,2013-01-31 07:25:00,
2013-01-31 02:27:00,51.7,51.4,29.42,SW,236,0.0,10.0,99,0.04,,---,0.15,VWS V14.01,2013-01-31 07:27:00,
2013-01-31 02:30:00,51.4,51.1,29.43,SSW,213,0.0,8.0,99,0.03,,---,0.15,VWS V14.01,2013-01-31 07:30:00,
2013-01-31 02:32:00,51.4,51.1,29.43,WNW,287,0.0,8.0,99,0.03,,---,0.15,VWS V14.01,2013-01-31 07:32:00,
2013-01-31 02:35:00,51.4,51.1,29.43,NE,41,0.0,0.0,99,0.03,,---,0.15,VWS V14.01,2013-01-31 07:35:00,
2013-01-31 02:37:00,51.4,51.1,29.43,SE,138,0.0,0.0,99,0.03,,---,0.15,VWS V14.01,2013-01-31 07:37:00,
2013-01-31 02:40:00,51.1,50.8,29.43,SE,145,0.0,7.0,99,0.02,,---,0.15,VWS V14.01,2013-01-31 07:40:00,
2013-01-31 02:42:00,51.1,50.8,29.43,West,271,0.0,7.0,99,0.02,,---,0.15,VWS V14.01,2013-01-31 07:42:00,
2013-01-31 02:45:00,51.0,50.7,29.43,NE,51,0.0,8.0,99,0.01,,---,0.15,VWS V14.01,2013-01-31 07:45:00,
2013-01-31 02:47:00,51.0,50.7,29.43,WSW,246,0.0,8.0,99,0.01,,---,0.15,VWS V14.01,2013-01-31 07:47:00,
2013-01-31 02:50:00,50.7,50.4,29.43,SSW,198,0.0,8.0,99,0.00,,---,0.15,VWS V14.01,2013-01-31 07:50:00,
2013-01-31 02:52:00,50.8,50.5,29.43,SSW,195,0.0,8.0,99,0.00,,---,0.15,VWS V14.01,2013-01-31 07:52:00,
2013-01-31 02:55:00,50.5,50.2,29.43,WSW,258,0.0,10.0,99,0.00,,---,0.15,VWS V14.01,2013-01-31 07:55:00,
2013-01-31 02:57:00,50.5,50.2,29.43,NNW,344,0.0,6.0,99,0.00,,---,0.15,VWS V14.01,2013-01-31 07:57:00,
2013-01-31 03:00:00,50.2,49.7,29.43,East,95,0.0,6.0,98,0.00,,---,0.15,VWS V14.01,2013-01-31 08:00:00,
2013-01-31 03:02:00,50.2,49.7,29.43,SW,234,0.0,6.0,98,0.00,,---,0.15,VWS V14.01,2013-01-31 08:02:00,
2013-01-31 03:05:00,49.9,49.4,29.43,SSE,157,0.0,2.0,98,0.00,,---,0.15,VWS V14.01,2013-01-31 08:05:00,
2013-01-31 03:07:00,50.1,49.6,29.43,SW,233,0.0,2.0,98,0.00,,---,0.15,VWS V14.01,2013-01-31 08:07:00,
2013-01-31 03:10:00,49.8,49.3,29.43,North,0,0.0,6.0,98,0.00,,---,0.15,VWS V14.01,2013-01-31 08:10:00,
2013-01-31 03:12:00,49.8,49.3,29.43,West,264,0.0,6.0,98,0.00,,---,0.15,VWS V14.01,2013-01-31 08:12:00,
2013-01-31 03:15:00,49.6,49.1,29.44,SW,219,0.0,8.0,98,0.00,,---,0.15,VWS V14.01,2013-01-31 08:15:00,
2013-01-31 03:17:00,49.6,49.1,29.44,SW,226,0.0,8.0,98,0.00,,---,0.15,VWS V14.01,2013-01-31 08:17:00,
2013-01-31 03:20:00,49.5,49.0,29.44,SSE,168,0.0,3.0,98,0.00,,---,0.15,VWS V14.01,2013-01-31 08:20:00,
2013-01-31 03:22:00,49.5,49.0,29.44,South,171,0.0,3.0,98,0.00,,---,0.15,VWS V14.01,2013-01-31 08:22:00,
2013-01-31 03:25:00,49.4,48.9,29.44,ESE,112,2.0,6.0,98,0.00,,---,0.15,VWS V14.01,2013-01-31 08:25:00,
2013-01-31 03:27:00,49.4,48.9,29.44,ESE,106,0.0,6.0,98,0.00,,---,0.15,VWS V14.01,2013-01-31 08:27:00,
2013-01-31 03:30:00,49.4,48.9,29.46,East,89,0.0,2.0,98,0.00,,---,0.15,VWS V14.01,2013-01-31 08:30:00,
2013-01-31 03:32:00,49.4,48.9,29.46,SW,223,0.0,2.0,98,0.00,,---,0.15,VWS V14.01,2013-01-31 08:32:00,
2013-01-31 03:35:00,49.4,48.9,29.46,ENE,68,2.0,2.0,98,0.00,,---,0.15,VWS V14.01,2013-01-31 08:35:00,
2013-01-31 03:37:00,49.4,48.9,29.46,SW,223,0.0,1.0,98,0.00,,---,0.15,VWS V14.01,2013-01-31 08:37:00,
2013-01-31 03:40:00,49.4,48.9,29.46,West,263,0.0,2.0,98,0.00,,---,0.15,VWS V14.01,2013-01-31 08:40:00,
2013-01-31 03:42:00,49.4,48.9,29.46,NW,305,0.0,2.0,98,0.00,,---,0.15,VWS V14.01,2013-01-31 08:42:00,
2013-01-31 03:45:00,49.2,48.7,29.46,SE,138,0.0,10.0,98,0.00,,---,0.15,VWS V14.01,2013-01-31 08:45:00,
2013-01-31 03:47:00,49.2,48.7,29.46,SSW,200,0.0,10.0,98,0.00,,---,0.15,VWS V14.01,2013-01-31 08:47:00,
2013-01-31 03:50:00,49.2,48.7,29.46,SSW,199,0.0,12.0,98,0.00,,---,0.15,VWS V14.01,2013-01-31 08:50:00,
2013-01-31 03:52:00,49.2,48.7,29.46,West,277,0.0,12.0,98,0.00,,---,0.15,VWS V14.01,2013-01-31 08:52:00,
2013-01-31 03:55:00,48.9,48.4,29.46,SSW,192,0.0,2.0,98,0.00,,---,0.15,VWS V14.01,2013-01-31 08:55:00,
2013-01-31 03:57:00,49.1,48.6,29.46,SSW,192,0.0,2.0,98,0.00,,---,0.15,VWS V14.01,2013-01-31 08:57:00,
2013-01-31 04:00:00,48.9,48.4,29.46,North,11,0.0,5.0,98,0.00,,---,0.15,VWS V14.01,2013-01-31 09:00:00,
2013-01-31 04:02:00,48.9,48.4,29.46,WNW,299,0.0,5.0,98,0.00,,---,0.15,VWS V14.01,2013-01-31 09:02:00,
2013-01-31 04:05:00,48.9,48.4,29.46,SSW,195,0.0,16.0,98,0.00,,---,0.15,VWS V14.01,2013-01-31 09:05:00,
2013-01-31 04:07:00,48.9,48.4,29.46,East,97,13.0,13.0,98,0.00,,---,0.15,VWS V14.01,2013-01-31 09:07:00,
2013-01-31 04:10:00,48.9,48.4,29.46,North,350,0.0,8.0,98,0.00,,---,0.15,VWS V14.01,2013-01-31 09:10:00,
2013-01-31 04:12:00,48.9,48.4,29.46,North,350,0.0,8.0,98,0.00,,---,0.15,VWS V14.01,2013-01-31 09:12:00,
2013-01-31 04:15:00,49.1,48.6,29.48,NW,323,0.0,3.0,98,0.00,,---,0.15,VWS V14.01,2013-01-31 09:15:00,
2013-01-31 04:17:00,49.1,48.6,29.48,SW,226,0.0,3.0,98,0.00,,---,0.15,VWS V14.01,2013-01-31 09:17:00,
2013-01-31 04:20:00,49.1,48.6,29.48,SW,233,6.0,6.0,98,0.00,,---,0.15,VWS V14.01,2013-01-31 09:20:00,
2013-01-31 04:22:00,49.1,48.6,29.48,South,169,0.0,0.0,98,0.00,,---,0.15,VWS V14.01,2013-01-31 09:22:00,
2013-01-31 04:25:00,49.2,48.7,29.48,ESE,104,0.0,6.0,98,0.00,,---,0.15,VWS V14.01,2013-01-31 09:25:00,
2013-01-31 04:27:00,49.1,48.6,29.48,ESE,106,0.0,6.0,98,0.00,,---,0.15,VWS V14.01,2013-01-31 09:27:00,
2013-01-31 04:30:00,49.2,48.4,29.49,WSW,240,0.0,6.0,97,0.00,,---,0.15,VWS V14.01,2013-01-31 09:30:00,
2013-01-31 04:32:00,49.2,48.7,29.49,WSW,243,0.0,6.0,98,0.00,,---,0.15,VWS V14.01,2013-01-31 09:32:00,
2013-01-31 04:35:00,49.2,48.7,29.49,ENE,62,0.0,5.0,98,0.00,,---,0.15,VWS V14.01,2013-01-31 09:35:00,
2013-01-31 04:37:00,49.2,48.7,29.49,ESE,123,0.0,0.0,98,0.00,,---,0.15,VWS V14.01,2013-01-31 09:37:00,
2013-01-31 04:40:00,49.2,48.4,29.49,SSE,155,0.0,5.0,97,0.00,,---,0.15,VWS V14.01,2013-01-31 09:40:00,
2013-01-31 04:42:00,49.2,48.4,29.49,South,186,0.0,5.0,97,0.00,,---,0.15,VWS V14.01,2013-01-31 09:42:00,
2013-01-31 04:45:00,49.2,48.7,29.50,North,0,0.0,0.0,98,0.00,,---,0.15,VWS V14.01,2013-01-31 09:45:00,
2013-01-31 04:47:00,49.2,48.7,29.50,East,86,0.0,0.0,98,0.00,,---,0.15,VWS V14.01,2013-01-31 09:47:00,
2013-01-31 04:50:00,49.1,48.3,29.50,NNE,23,0.0,6.0,97,0.00,,---,0.15,VWS V14.01,2013-01-31 09:50:00,
2013-01-31 04:52:00,49.1,48.3,29.50,ESE,107,0.0,6.0,97,0.00,,---,0.15,VWS V14.01,2013-01-31 09:52:00,
2013-01-31 04:55:00,49.1,48.3,29.50,ESE,103,0.0,0.0,97,0.00,,---,0.15,VWS V14.01,2013-01-31 09:55:00,
2013-01-31 04:57:00,49.1,48.3,29.50,East,85,0.0,0.0,97,0.00,,---,0.15,VWS V14.01,2013-01-31 09:57:00,
2013-01-31 05:00:00,49.1,48.6,29.51,NE,49,0.0,0.0,98,0.00,,---,0.15,VWS V14.01,2013-01-31 10:00:00,
2013-01-31 05:02:00,49.1,48.6,29.51,ESE,114,0.0,0.0,98,0.00,,---,0.15,VWS V14.01,2013-01-31 10:02:00,
2013-01-31 05:05:00,48.9,48.4,29.51,North,359,0.0,0.0,98,0.00,,---,0.15,VWS V14.01,2013-01-31 10:05:00,
2013-01-31 05:07:00,48.9,48.4,29.51,North,0,0.0,0.0,98,0.00,,---,0.15,VWS V14.01,2013-01-31 10:07:00,
2013-01-31 05:10:00,48.8,48.3,29.51,North,357,0.0,0.0,98,0.00,,---,0.15,VWS V14.01,2013-01-31 10:10:00,
2013-01-31 05:12:00,48.8,48.3,29.51,North,0,0.0,0.0,98,0.00,,---,0.15,VWS V14.01,2013-01-31 10:12:00,
2013-01-31 05:15:00,48.6,48.1,29.52,NW,325,0.0,5.0,98,0.00,,---,0.15,VWS V14.01,2013-01-31 10:15:00,
2013-01-31 05:17:00,48.6,48.1,29.52,NNW,330,0.0,5.0,98,0.00,,---,0.15,VWS V14.01,2013-01-31 10:17:00,
2013-01-31 05:20:00,48.3,47.8,29.52,North,352,0.0,5.0,98,0.00,,---,0.15,VWS V14.01,2013-01-31 10:20:00,
2013-01-31 05:22:00,48.3,47.8,29.52,North,0,0.0,5.0,98,0.00,,---,0.15,VWS V14.01,2013-01-31 10:22:00,
2013-01-31 05:25:00,47.9,47.1,29.52,NNE,24,0.0,3.0,97,0.01,,---,0.16,VWS V14.01,2013-01-31 10:25:00,
2013-01-31 05:27:00,47.9,47.1,29.52,NNW,340,0.0,3.0,97,0.01,,---,0.16,VWS V14.01,2013-01-31 10:27:00,
2013-01-31 05:30:00,47.3,46.5,29.54,NNW,344,0.0,11.0,97,0.01,,---,0.16,VWS V14.01,2013-01-31 10:30:00,
2013-01-31 05:32:00,47.3,46.5,29.54,WNW,287,0.0,11.0,97,0.01,,---,0.16,VWS V14.01,2013-01-31 10:32:00,
2013-01-31 05:35:00,47.0,46.2,29.54,NW,326,0.0,0.0,97,0.01,,---,0.16,VWS V14.01,2013-01-31 10:35:00,
2013-01-31 05:37:00,47.0,46.2,29.54,NW,326,0.0,0.0,97,0.01,,---,0.16,VWS V14.01,2013-01-31 10:37:00,
2013-01-31 05:40:00,46.8,46.0,29.54,NNE,25,0.0,1.0,97,0.01,,---,0.16,VWS V14.01,2013-01-31 10:40:00,
2013-01-31 05:42:00,47.0,46.2,29.54,North,0,0.0,0.0,97,0.01,,---,0.16,VWS V14.01,2013-01-31 10:42:00,
2013-01-31 05:45:00,46.7,46.2,29.55,North,359,0.0,3.0,98,0.01,,---,0.16,VWS V14.01,2013-01-31 10:45:00,
2013-01-31 05:47:00,46.7,46.2,29.55,NW,313,0.0,3.0,98,0.01,,---,0.16,VWS V14.01,2013-01-31 10:47:00,
2013-01-31 05:50:00,46.5,46.0,29.55,NNE,24,0.0,0.0,98,0.01,,---,0.16,VWS V14.01,2013-01-31 10:50:00,
2013-01-31 05:52:00,46.7,46.2,29.55,NE,37,0.0,0.0,98,0.01,,---,0.16,VWS V14.01,2013-01-31 10:52:00,
2013-01-31 05:55:00,46.4,45.6,29.55,North,0,0.0,6.0,97,0.01,,---,0.16,VWS V14.01,2013-01-31 10:55:00,
2013-01-31 05:57:00,46.4,45.6,29.55,North,1,0.0,6.0,97,0.01,,---,0.16,VWS V14.01,2013-01-31 10:57:00,
2013-01-31 06:00:00,46.4,45.9,29.56,NW,305,0.0,2.0,98,0.01,,---,0.16,VWS V14.01,2013-01-31 11:00:00,
2013-01-31 06:02:00,46.4,45.9,29.56,NNW,332,0.0,2.0,98,0.01,,---,0.16,VWS V14.01,2013-01-31 11:02:00,
2013-01-31 06:05:00,46.2,45.4,29.56,North,354,0.0,8.0,97,0.01,,---,0.16,VWS V14.01,2013-01-31 11:05:00,
2013-01-31 06:07:00,46.2,45.4,29.56,North,354,0.0,8.0,97,0.01,,---,0.16,VWS V14.01,2013-01-31 11:07:00,
2013-01-31 06:10:00,46.1,45.3,29.56,NNW,337,0.0,3.0,97,0.01,,---,0.16,VWS V14.01,2013-01-31 11:10:00,
2013-01-31 06:12:00,46.1,45.3,29.56,North,0,0.0,3.0,97,0.01,,---,0.16,VWS V14.01,2013-01-31 11:12:00,
2013-01-31 06:15:00,46.0,45.2,29.58,North,357,0.0,3.0,97,0.01,,---,0.16,VWS V14.01,2013-01-31 11:15:00,
2013-01-31 06:17:00,46.0,45.2,29.58,North,357,0.0,3.0,97,0.01,,---,0.16,VWS V14.01,2013-01-31 11:17:00,
2013-01-31 06:20:00,45.8,45.0,29.58,NNW,344,0.0,5.0,97,0.01,,---,0.16,VWS V14.01,2013-01-31 11:20:00,
2013-01-31 06:22:00,45.8,45.0,29.58,NNW,344,0.0,5.0,97,0.01,,---,0.16,VWS V14.01,2013-01-31 11:22:00,
2013-01-31 06:25:00,45.7,44.9,29.58,NW,319,0.0,7.0,97,0.01,,---,0.16,VWS V14.01,2013-01-31 11:25:00,
2013-01-31 06:27:00,45.7,44.9,29.58,NW,315,0.0,7.0,97,0.01,,---,0.16,VWS V14.01,2013-01-31 11:27:00,
2013-01-31 06:30:00,45.5,44.7,29.59,NNW,343,0.0,0.0,97,0.00,,---,0.16,VWS V14.01,2013-01-31 11:30:00,
2013-01-31 06:32:00,45.5,44.7,29.59,North,349,0.0,0.0,97,0.00,,---,0.16,VWS V14.01,2013-01-31 11:32:00,
2013-01-31 06:35:00,45.2,44.1,29.59,NE,41,0.0,2.0,96,0.00,,---,0.16,VWS V14.01,2013-01-31 11:35:00,
2013-01-31 06:37:00,45.4,44.3,29.59,North,3,0.0,2.0,96,0.00,,---,0.16,VWS V14.01,2013-01-31 11:37:00,
2013-01-31 06:40:00,44.9,43.8,29.59,NNE,28,0.0,6.0,96,0.00,,---,0.16,VWS V14.01,2013-01-31 11:40:00,
2013-01-31 06:42:00,44.9,43.8,29.59,ESE,103,0.0,6.0,96,0.00,,---,0.16,VWS V14.01,2013-01-31 11:42:00,
2013-01-31 06:45:00,44.6,43.3,29.60,NNW,342,0.0,3.0,95,0.00,,---,0.16,VWS V14.01,2013-01-31 11:45:00,
2013-01-31 06:47:00,44.8,43.7,29.60,NNE,32,1.0,3.0,96,0.00,,---,0.16,VWS V14.01,2013-01-31 11:47:00,
2013-01-31 06:50:00,44.2,42.9,29.60,NNW,340,0.0,6.0,95,0.00,,---,0.16,VWS V14.01,2013-01-31 11:50:00,
2013-01-31 06:52:00,44.3,43.0,29.60,NNW,337,0.0,6.0,95,0.00,,---,0.16,VWS V14.01,2013-01-31 11:52:00,
2013-01-31 06:55:00,43.8,42.2,29.60,North,353,0.0,3.0,94,0.00,,---,0.16,VWS V14.01,2013-01-31 11:55:00,
2013-01-31 06:57:00,43.9,42.6,29.60,NW,313,0.0,3.0,95,0.00,,---,0.16,VWS V14.01,2013-01-31 11:57:00,
2013-01-31 07:00:00,43.5,42.2,29.61,East,100,0.0,0.0,95,0.00,,---,0.16,VWS V14.01,2013-01-31 12:00:00,
2013-01-31 07:02:00,43.6,42.3,29.61,East,100,0.0,0.0,95,0.00,,---,0.16,VWS V14.01,2013-01-31 12:02:00,
2013-01-31 07:05:00,43.3,41.7,29.61,North,6,0.0,0.0,94,0.00,,---,0.16,VWS V14.01,2013-01-31 12:05:00,
2013-01-31 07:07:00,43.3,41.7,29.61,North,6,0.0,0.0,94,0.00,,---,0.16,VWS V14.01,2013-01-31 12:07:00,
2013-01-31 07:10:00,43.1,41.8,29.61,NW,322,0.0,0.0,95,0.00,,---,0.16,VWS V14.01,2013-01-31 12:10:00,
2013-01-31 07:12:00,43.2,41.9,29.61,North,0,0.0,0.0,95,0.00,,---,0.16,VWS V14.01,2013-01-31 12:12:00,
2013-01-31 07:15:00,42.8,41.2,29.63,NNW,328,0.0,7.0,94,0.00,,---,0.16,VWS V14.01,2013-01-31 12:15:00,
2013-01-31 07:17:00,42.8,41.2,29.63,NW,309,0.0,7.0,94,0.00,,---,0.16,VWS V14.01,2013-01-31 12:17:00,
2013-01-31 07:20:00,42.6,41.0,29.63,WNW,294,0.0,6.0,94,0.00,,---,0.16,VWS V14.01,2013-01-31 12:20:00,
2013-01-31 07:22:00,42.6,41.0,29.63,WNW,294,0.0,6.0,94,0.00,,---,0.16,VWS V14.01,2013-01-31 12:22:00,
2013-01-31 07:25:00,42.5,41.2,29.63,NW,315,0.0,5.0,95,0.00,,---,0.16,VWS V14.01,2013-01-31 12:25:00,
2013-01-31 07:27:00,42.6,41.3,29.63,North,10,0.0,5.0,95,0.00,,---,0.16,VWS V14.01,2013-01-31 12:27:00,
2013-01-31 07:30:00,42.3,40.7,29.65,North,353,0.0,5.0,94,0.00,,---,0.16,VWS V14.01,2013-01-31 12:30:00,
2013-01-31 07:32:00,42.3,41.0,29.65,NW,320,0.0,5.0,95,0.00,,---,0.16,VWS V14.01,2013-01-31 12:32:00,
2013-01-31 07:35:00,42.2,40.6,29.65,North,10,0.0,3.0,94,0.00,,---,0.16,VWS V14.01,2013-01-31 12:35:00,
2013-01-31 07:37:00,42.2,40.6,29.65,NW,311,0.0,3.0,94,0.00,,---,0.16,VWS V14.01,2013-01-31 12:37:00,
2013-01-31 07:40:00,42.1,40.8,29.65,NNW,340,0.0,6.0,95,0.00,,---,0.16,VWS V14.01,2013-01-31 12:40:00,
2013-01-31 07:42:00,42.1,40.8,29.65,North,3,5.0,6.0,95,0.00,,---,0.16,VWS V14.01,2013-01-31 12:42:00,
2013-01-31 07:45:00,41.9,40.6,29.67,SW,227,0.0,0.0,95,0.00,,---,0.16,VWS V14.01,2013-01-31 12:45:00,
2013-01-31 07:47:00,41.9,40.6,29.67,NNW,328,0.0,0.0,95,0.00,,---,0.16,VWS V14.01,2013-01-31 12:47:00,
2013-01-31 07:50:00,41.9,40.6,29.67,ENE,59,0.0,6.0,95,0.00,,---,0.16,VWS V14.01,2013-01-31 12:50:00,
2013-01-31 07:52:00,41.9,40.6,29.67,North,8,1.0,6.0,95,0.00,,---,0.16,VWS V14.01,2013-01-31 12:52:00,
2013-01-31 07:55:00,41.9,40.6,29.67,North,7,1.0,2.0,95,0.00,,---,0.16,VWS V14.01,2013-01-31 12:55:00,
2013-01-31 07:57:00,41.9,40.6,29.67,NNW,339,0.0,2.0,95,0.00,,---,0.16,VWS V14.01,2013-01-31 12:57:00,
2013-01-31 08:00:00,41.8,40.2,29.68,NNW,342,0.0,1.0,94,0.00,,---,0.16,VWS V14.01,2013-01-31 13:00:00,
2013-01-31 08:02:00,41.8,40.2,29.68,NNW,342,0.0,1.0,94,0.00,,---,0.16,VWS V14.01,2013-01-31 13:02:00,
2013-01-31 08:05:00,41.6,40.0,29.68,NNW,339,0.0,1.0,94,0.00,,---,0.16,VWS V14.01,2013-01-31 13:05:00,
2013-01-31 08:07:00,41.6,40.0,29.68,NNW,329,0.0,1.0,94,0.00,,---,0.16,VWS V14.01,2013-01-31 13:07:00,
2013-01-31 08:10:00,41.5,39.9,29.68,NNW,336,0.0,7.0,94,0.00,,---,0.16,VWS V14.01,2013-01-31 13:10:00,
2013-01-31 08:12:00,41.5,39.9,29.68,NNW,329,0.0,7.0,94,0.00,,---,0.16,VWS V14.01,2013-01-31 13:12:00,
2013-01-31 08:15:00,41.5,39.9,29.70,NW,323,0.0,2.0,94,0.00,,---,0.16,VWS V14.01,2013-01-31 13:15:00,
2013-01-31 08:17:00,41.5,39.9,29.70,NW,309,0.0,0.0,94,0.00,,---,0.16,VWS V14.01,2013-01-31 13:17:00,
2013-01-31 08:20:00,41.3,40.0,29.70,NW,325,0.0,0.0,95,0.00,,---,0.16,VWS V14.01,2013-01-31 13:20:00,
2013-01-31 08:22:00,41.3,39.7,29.70,NW,319,0.0,0.0,94,0.00,,---,0.16,VWS V14.01,2013-01-31 13:22:00,
2013-01-31 08:25:00,41.3,39.7,29.70,NNW,332,4.0,6.0,94,0.00,,---,0.16,VWS V14.01,2013-01-31 13:25:00,
2013-01-31 08:27:00,41.3,39.7,29.70,NNW,330,0.0,0.0,94,0.00,,---,0.16,VWS V14.01,2013-01-31 13:27:00,
2013-01-31 08:30:00,41.3,39.7,29.71,WNW,301,0.0,5.0,94,0.00,,---,0.16,VWS V14.01,2013-01-31 13:30:00,
2013-01-31 08:32:00,41.3,39.7,29.71,NNW,346,2.0,5.0,94,0.00,,---,0.16,VWS V14.01,2013-01-31 13:32:00,
2013-01-31 08:35:00,41.5,39.9,29.71,NNW,335,0.0,3.0,94,0.00,,---,0.16,VWS V14.01,2013-01-31 13:35:00,
2013-01-31 08:37:00,41.5,39.9,29.71,North,0,0.0,3.0,94,0.00,,---,0.16,VWS V14.01,2013-01-31 13:37:00,
2013-01-31 08:40:00,41.5,39.9,29.71,SW,216,0.0,2.0,94,0.00,,---,0.16,VWS V14.01,2013-01-31 13:40:00,
2013-01-31 08:41:00,41.5,39.9,29.71,NNW,335,0.0,0.0,94,0.00,,---,0.16,VWS V14.01,2013-01-31 13:41:00,
2013-01-31 08:45:00,41.3,39.4,29.72,North,10,0.0,6.0,93,0.00,,---,0.16,VWS V14.01,2013-01-31 13:45:00,
2013-01-31 08:46:00,41.3,39.4,29.72,North,0,0.0,6.0,93,0.00,,---,0.16,VWS V14.01,2013-01-31 13:46:00,
2013-01-31 08:50:00,41.1,39.2,29.72,North,350,0.0,11.0,93,0.00,,---,0.16,VWS V14.01,2013-01-31 13:50:00,
2013-01-31 08:51:00,41.2,39.3,29.72,North,356,3.0,6.0,93,0.00,,---,0.16,VWS V14.01,2013-01-31 13:51:00,
2013-01-31 08:55:00,40.8,38.9,29.72,NW,311,0.0,8.0,93,0.00,,---,0.16,VWS V14.01,2013-01-31 13:55:00,
2013-01-31 08:56:00,40.8,38.9,29.72,NNW,333,0.0,8.0,93,0.00,,---,0.16,VWS V14.01,2013-01-31 13:56:00,
2013-01-31 09:00:00,40.8,38.9,29.73,NW,318,0.0,8.0,93,0.00,,---,0.16,VWS V14.01,2013-01-31 14:00:00,
2013-01-31 09:01:00,40.8,38.7,29.73,WNW,302,0.0,8.0,92,0.00,,---,0.16,VWS V14.01,2013-01-31 14:01:00,
2013-01-31 09:05:00,40.6,38.7,29.73,NNW,339,0.0,14.0,93,0.00,,---,0.16,VWS V14.01,2013-01-31 14:05:00,
2013-01-31 09:06:00,40.6,38.7,29.73,NNW,340,0.0,14.0,93,0.00,,---,0.16,VWS V14.01,2013-01-31 14:06:00,
2013-01-31 09:10:00,40.8,39.2,29.73,North,0,0.0,8.0,94,0.00,,---,0.16,VWS V14.01,2013-01-31 14:10:00,
2013-01-31 09:11:00,40.8,38.9,29.73,North,359,0.0,8.0,93,0.00,,---,0.16,VWS V14.01,2013-01-31 14:11:00,
2013-01-31 09:15:00,40.6,38.7,29.74,NNW,333,0.0,7.0,93,0.00,,---,0.16,VWS V14.01,2013-01-31 14:15:00,
2013-01-31 09:16:00,40.8,38.9,29.74,North,353,0.0,7.0,93,0.00,,---,0.16,VWS V14.01,2013-01-31 14:16:00,
2013-01-31 09:20:00,41.3,39.7,29.74,North,352,0.0,0.0,94,0.00,,---,0.16,VWS V14.01,2013-01-31 14:20:00,
2013-01-31 09:21:00,41.2,39.6,29.74,NNW,343,0.0,0.0,94,0.00,,---,0.16,VWS V14.01,2013-01-31 14:21:00,
2013-01-31 09:25:00,41.3,39.2,29.74,NNW,342,0.0,12.0,92,0.00,,---,0.16,VWS V14.01,2013-01-31 14:25:00,
2013-01-31 09:26:00,41.3,39.7,29.74,North,8,0.0,12.0,94,0.00,,---,0.16,VWS V14.01,2013-01-31 14:26:00,
2013-01-31 09:30:00,41.5,39.6,29.75,NW,323,0.0,6.0,93,0.00,,---,0.16,VWS V14.01,2013-01-31 14:30:00,
2013-01-31 09:31:00,41.3,39.2,29.75,NNW,329,0.0,6.0,92,0.00,,---,0.16,VWS V14.01,2013-01-31 14:31:00,
2013-01-31 09:35:00,41.8,39.9,29.75,NW,319,2.0,8.0,93,0.00,,---,0.16,VWS V14.01,2013-01-31 14:35:00,
2013-01-31 09:36:00,41.6,39.7,29.75,NE,41,0.0,8.0,93,0.00,,---,0.16,VWS V14.01,2013-01-31 14:36:00,
2013-01-31 09:40:00,42.1,40.2,29.75,NNW,335,2.0,8.0,93,0.00,,---,0.16,VWS V14.01,2013-01-31 14:40:00,
2013-01-31 09:41:00,42.1,40.0,29.75,West,272,0.0,8.0,92,0.00,,---,0.16,VWS V14.01,2013-01-31 14:41:00,
2013-01-31 09:45:00,42.2,40.3,29.76,North,10,0.0,3.0,93,0.00,,---,0.16,VWS V14.01,2013-01-31 14:45:00,
2013-01-31 09:46:00,42.2,40.3,29.76,NNW,347,0.0,2.0,93,0.00,,---,0.16,VWS V14.01,2013-01-31 14:46:00,
2013-01-31 09:50:00,42.5,40.3,29.76,NW,323,0.0,12.0,92,0.00,,---,0.16,VWS V14.01,2013-01-31 14:50:00,
2013-01-31 09:51:00,42.5,40.3,29.76,West,272,0.0,12.0,92,0.00,,---,0.16,VWS V14.01,2013-01-31 14:51:00,
2013-01-31 09:55:00,42.3,40.2,29.76,NW,309,5.0,7.0,92,0.00,,---,0.16,VWS V14.01,2013-01-31 14:55:00,
2013-01-31 09:56:00,42.5,40.3,29.76,NNW,329,1.0,7.0,92,0.00,,---,0.16,VWS V14.01,2013-01-31 14:56:00,
2013-01-31 10:00:00,42.1,39.7,29.77,WNW,299,0.0,13.0,91,0.00,,---,0.16,VWS V14.01,2013-01-31 15:00:00,
2013-01-31 10:01:00,42.2,39.8,29.77,NW,323,3.0,13.0,91,0.00,,---,0.16,VWS V14.01,2013-01-31 15:01:00,
2013-01-31 10:05:00,42.5,40.3,29.77,North,349,0.0,2.0,92,0.00,,---,0.16,VWS V14.01,2013-01-31 15:05:00,
2013-01-31 10:06:00,42.3,40.2,29.77,NNW,337,0.0,2.0,92,0.00,,---,0.16,VWS V14.01,2013-01-31 15:06:00,
2013-01-31 10:10:00,42.5,40.1,29.77,NNW,346,0.0,11.0,91,0.00,,---,0.16,VWS V14.01,2013-01-31 15:10:00,
2013-01-31 10:11:00,42.5,40.3,29.77,NNE,18,6.0,11.0,92,0.00,,---,0.16,VWS V14.01,2013-01-31 15:11:00,
2013-01-31 10:15:00,42.8,40.4,29.77,NNW,332,4.0,7.0,91,0.00,,---,0.16,VWS V14.01,2013-01-31 15:15:00,
2013-01-31 10:16:00,42.6,40.4,29.77,NW,309,6.0,7.0,92,0.00,,---,0.16,VWS V14.01,2013-01-31 15:16:00,
2013-01-31 10:20:00,43.9,41.7,29.77,North,1,0.0,5.0,92,0.00,,---,0.16,VWS V14.01,2013-01-31 15:20:00,
2013-01-31 10:21:00,43.6,41.4,29.77,North,0,0.0,5.0,92,0.00,,---,0.16,VWS V14.01,2013-01-31 15:21:00,
2013-01-31 10:25:00,44.8,42.6,29.77,NW,322,7.0,7.0,92,0.00,,---,0.16,VWS V14.01,2013-01-31 15:25:00,
2013-01-31 10:26:00,44.6,42.1,29.77,NE,49,0.0,6.0,91,0.00,,---,0.16,VWS V14.01,2013-01-31 15:26:00,
2013-01-31 10:30:00,44.9,41.9,29.78,ESE,102,1.0,10.0,89,0.00,,---,0.16,VWS V14.01,2013-01-31 15:30:00,
2013-01-31 10:31:00,44.9,41.9,29.78,NNE,13,6.0,7.0,89,0.00,,---,0.16,VWS V14.01,2013-01-31 15:31:00,
2013-01-31 10:35:00,45.2,42.2,29.78,NNE,20,0.0,8.0,89,0.00,,---,0.16,VWS V14.01,2013-01-31 15:35:00,
2013-01-31 10:36:00,45.4,42.3,29.78,North,0,0.0,7.0,89,0.00,,---,0.16,VWS V14.01,2013-01-31 15:36:00,
2013-01-31 10:40:00,45.1,42.1,29.78,North,0,8.0,9.0,89,0.00,,---,0.16,VWS V14.01,2013-01-31 15:40:00,
2013-01-31 10:41:00,45.2,42.2,29.78,NNW,347,0.0,9.0,89,0.00,,---,0.16,VWS V14.01,2013-01-31 15:41:00,
2013-01-31 10:45:00,45.5,41.6,29.78,NNE,20,0.0,8.0,86,0.00,,---,0.16,VWS V14.01,2013-01-31 15:45:00,
2013-01-31 10:46:00,45.5,41.9,29.78,North,6,0.0,8.0,87,0.00,,---,0.16,VWS V14.01,2013-01-31 15:46:00,
2013-01-31 10:50:00,46.7,37.8,29.78,South,184,0.0,3.0,71,0.00,,---,0.16,VWS V14.01,2013-01-31 15:50:00,
2013-01-31 10:51:00,46.4,40.6,29.78,SE,134,0.0,3.0,80,0.00,,---,0.16,VWS V14.01,2013-01-31 15:51:00,
2013-01-31 10:55:00,47.1,33.9,29.78,SW,229,0.0,1.0,60,0.00,,---,0.16,VWS V14.01,2013-01-31 15:55:00,
2013-01-31 10:56:00,47.1,35.2,29.78,North,359,0.0,1.0,63,0.00,,---,0.16,VWS V14.01,2013-01-31 15:56:00,
2013-01-31 11:00:00,48.0,32.2,29.79,ENE,58,0.0,10.0,54,0.00,,---,0.16,VWS V14.01,2013-01-31 16:00:00,
2013-01-31 11:01:00,47.7,32.8,29.79,NE,41,0.0,10.0,56,0.00,,---,0.16,VWS V14.01,2013-01-31 16:01:00,
2013-01-31 11:05:00,48.8,32.4,29.79,ENE,65,0.0,3.0,53,0.00,,---,0.16,VWS V14.01,2013-01-31 16:05:00,
2013-01-31 11:06:00,48.8,32.0,29.79,North,357,0.0,3.0,52,0.00,,---,0.16,VWS V14.01,2013-01-31 16:06:00,
2013-01-31 11:10:00,48.8,30.5,29.79,NW,304,0.0,6.0,49,0.00,,---,0.16,VWS V14.01,2013-01-31 16:10:00,
2013-01-31 11:11:00,48.9,30.6,29.79,NW,318,0.0,6.0,49,0.00,,---,0.16,VWS V14.01,2013-01-31 16:11:00,
2013-01-31 11:15:00,48.2,28.4,29.79,NNW,340,0.0,8.0,46,0.00,,---,0.16,VWS V14.01,2013-01-31 16:15:00,
2013-01-31 11:16:00,48.2,28.4,29.79,NW,323,0.0,8.0,46,0.00,,---,0.16,VWS V14.01,2013-01-31 16:16:00,
2013-01-31 11:20:00,47.9,27.6,29.79,NNW,333,4.0,7.0,45,0.00,,---,0.16,VWS V14.01,2013-01-31 16:20:00,
2013-01-31 11:21:00,48.0,27.7,29.79,WNW,298,2.0,7.0,45,0.00,,---,0.16,VWS V14.01,2013-01-31 16:21:00,
2013-01-31 11:25:00,48.8,29.0,29.79,NNW,346,0.0,5.0,46,0.00,,---,0.16,VWS V14.01,2013-01-31 16:25:00,
2013-01-31 11:26:00,48.6,28.8,29.79,North,0,0.0,5.0,46,0.00,,---,0.16,VWS V14.01,2013-01-31 16:26:00,
2013-01-31 11:30:00,49.8,29.9,29.79,NNW,343,0.0,4.0,46,0.00,,---,0.16,VWS V14.01,2013-01-31 16:30:00,
2013-01-31 11:31:00,49.6,29.7,29.79,NNE,28,0.0,4.0,46,0.00,,---,0.16,VWS V14.01,2013-01-31 16:31:00,
2013-01-31 11:35:00,49.4,24.2,29.79,NNW,347,1.0,10.0,37,0.00,,---,0.16,VWS V14.01,2013-01-31 16:35:00,
2013-01-31 11:36:00,49.4,24.2,29.79,NW,325,0.0,10.0,37,0.00,,---,0.16,VWS V14.01,2013-01-31 16:36:00,
2013-01-31 11:40:00,48.2,23.2,29.79,NNW,340,3.0,13.0,37,0.00,,---,0.16,VWS V14.01,2013-01-31 16:40:00,
2013-01-31 11:41:00,48.2,21.9,29.79,NNW,333,0.0,13.0,35,0.00,,---,0.16,VWS V14.01,2013-01-31 16:41:00,
2013-01-31 11:45:00,48.6,24.2,29.79,North,353,0.0,7.0,38,0.00,,---,0.16,VWS V14.01,2013-01-31 16:45:00,
2013-01-31 11:46:00,48.6,22.9,29.79,North,353,0.0,7.0,36,0.00,,---,0.16,VWS V14.01,2013-01-31 16:46:00,
2013-01-31 11:50:00,49.6,23.8,29.79,NNW,329,1.0,3.0,36,0.00,,---,0.16,VWS V14.01,2013-01-31 16:50:00,
2013-01-31 11:51:00,49.6,26.3,29.79,North,350,3.0,3.0,40,0.00,,---,0.16,VWS V14.01,2013-01-31 16:51:00,
2013-01-31 11:55:00,49.8,25.9,29.79,NW,319,0.0,7.0,39,0.00,,---,0.16,VWS V14.01,2013-01-31 16:55:00,
2013-01-31 11:56:00,49.8,25.2,29.79,West,280,0.0,7.0,38,0.00,,---,0.16,VWS V14.01,2013-01-31 16:56:00,
2013-01-31 12:00:00,49.8,23.9,29.79,ENE,62,1.0,6.0,36,0.00,,---,0.16,VWS V14.01,2013-01-31 17:00:00,
2013-01-31 12:01:00,49.8,25.9,29.79,NNW,342,1.0,6.0,39,0.00,,---,0.16,VWS V14.01,2013-01-31 17:01:00,
2013-01-31 12:05:00,49.9,23.4,29.79,ENE,75,1.0,10.0,35,0.00,,---,0.16,VWS V14.01,2013-01-31 17:05:00,
2013-01-31 12:06:00,49.9,23.4,29.79,North,359,0.0,6.0,35,0.00,,---,0.16,VWS V14.01,2013-01-31 17:06:00,
2013-01-31 12:10:00,50.7,25.4,29.79,NW,323,0.0,5.0,37,0.00,,---,0.16,VWS V14.01,2013-01-31 17:10:00,
2013-01-31 12:11:00,50.5,26.5,29.79,NW,326,0.0,3.0,39,0.00,,---,0.16,VWS V14.01,2013-01-31 17:11:00,
2013-01-31 12:15:00,50.8,22.0,29.79,NNW,328,7.0,11.0,32,0.00,,---,0.16,VWS V14.01,2013-01-31 17:15:00,
2013-01-31 12:16:00,50.8,22.0,29.79,East,100,3.0,3.0,32,0.00,,---,0.16,VWS V14.01,2013-01-31 17:16:00,
2013-01-31 12:20:00,50.5,23.9,29.79,NNW,343,0.0,7.0,35,0.00,,---,0.16,VWS V14.01,2013-01-31 17:20:00,
2013-01-31 12:21:00,50.5,24.6,29.79,North,0,3.0,7.0,36,0.00,,---,0.16,VWS V14.01,2013-01-31 17:21:00,
2013-01-31 12:25:00,50.7,22.7,29.79,NNE,18,0.0,7.0,33,0.00,,---,0.16,VWS V14.01,2013-01-31 17:25:00,
2013-01-31 12:26:00,50.5,22.5,29.79,NE,35,0.0,7.0,33,0.00,,---,0.16,VWS V14.01,2013-01-31 17:26:00,
2013-01-31 12:30:00,50.2,22.2,29.78,North,10,0.0,6.0,33,0.00,,---,0.16,VWS V14.01,2013-01-31 17:30:00,
2013-01-31 12:31:00,50.1,19.9,29.78,NNE,32,0.0,6.0,30,0.00,,---,0.16,VWS V14.01,2013-01-31 17:31:00,
2013-01-31 12:35:00,50.2,22.9,29.78,North,3,0.0,11.0,34,0.00,,---,0.16,VWS V14.01,2013-01-31 17:35:00,
2013-01-31 12:36:00,50.1,23.5,29.78,ENE,76,0.0,11.0,35,0.00,,---,0.16,VWS V14.01,2013-01-31 17:36:00,
2013-01-31 12:40:00,50.7,23.4,29.78,North,357,1.0,2.0,34,0.00,,---,0.16,VWS V14.01,2013-01-31 17:40:00,
2013-01-31 12:41:00,50.5,23.2,29.78,NW,319,0.0,2.0,34,0.00,,---,0.16,VWS V14.01,2013-01-31 17:41:00,
2013-01-31 12:45:00,51.4,21.0,29.79,SSE,161,0.0,5.0,30,0.00,,---,0.16,VWS V14.01,2013-01-31 17:45:00,
2013-01-31 12:46:00,51.4,22.5,29.79,NNE,23,0.0,3.0,32,0.00,,---,0.16,VWS V14.01,2013-01-31 17:46:00,
2013-01-31 12:50:00,50.8,21.3,29.79,NNW,336,0.0,2.0,31,0.00,,---,0.16,VWS V14.01,2013-01-31 17:50:00,
2013-01-31 12:51:00,50.8,21.3,29.79,NNW,336,0.0,2.0,31,0.00,,---,0.16,VWS V14.01,2013-01-31 17:51:00,
2013-01-31 12:55:00,50.8,20.5,29.79,North,0,0.0,3.0,30,0.00,,---,0.16,VWS V14.01,2013-01-31 17:55:00,
2013-01-31 12:56:00,50.8,20.5,29.79,North,0,0.0,3.0,30,0.00,,---,0.16,VWS V14.01,2013-01-31 17:56:00,
2013-01-31 13:00:00,50.5,22.5,29.78,ENE,59,0.0,8.0,33,0.00,,---,0.16,VWS V14.01,2013-01-31 18:00:00,
2013-01-31 13:01:00,50.7,20.4,29.78,NW,316,0.0,8.0,30,0.00,,---,0.16,VWS V14.01,2013-01-31 18:01:00,
2013-01-31 13:05:00,51.0,22.2,29.78,NNW,328,1.0,5.0,32,0.00,,---,0.16,VWS V14.01,2013-01-31 18:05:00,
2013-01-31 13:06:00,50.8,21.3,29.78,North,0,0.0,5.0,31,0.00,,---,0.16,VWS V14.01,2013-01-31 18:06:00,
2013-01-31 13:10:00,51.3,22.5,29.78,North,349,0.0,5.0,32,0.00,,---,0.16,VWS V14.01,2013-01-31 18:10:00,
2013-01-31 13:11:00,51.1,22.3,29.78,NNE,16,0.0,5.0,32,0.00,,---,0.16,VWS V14.01,2013-01-31 18:11:00,
2013-01-31 13:15:00,51.3,20.9,29.78,NW,313,2.0,10.0,30,0.00,,---,0.16,VWS V14.01,2013-01-31 18:15:00,
2013-01-31 13:16:00,51.4,20.2,29.78,North,0,0.0,6.0,29,0.00,,---,0.16,VWS V14.01,2013-01-31 18:16:00,
2013-01-31 13:20:00,50.7,20.4,29.78,WNW,295,0.0,8.0,30,0.00,,---,0.16,VWS V14.01,2013-01-31 18:20:00,
2013-01-31 13:21:00,50.5,21.8,29.78,NW,318,0.0,8.0,32,0.00,,---,0.16,VWS V14.01,2013-01-31 18:21:00,
2013-01-31 13:25:00,51.1,22.3,29.78,North,10,0.0,1.0,32,0.00,,---,0.16,VWS V14.01,2013-01-31 18:25:00,
2013-01-31 13:26:00,50.8,21.3,29.78,North,6,0.0,1.0,31,0.00,,---,0.16,VWS V14.01,2013-01-31 18:26:00,
2013-01-31 13:30:00,51.0,19.1,29.79,North,0,1.0,7.0,28,0.00,,---,0.16,VWS V14.01,2013-01-31 18:30:00,
2013-01-31 13:31:00,51.1,21.5,29.79,NNW,347,3.0,7.0,31,0.00,,---,0.16,VWS V14.01,2013-01-31 18:31:00,
2013-01-31 13:35:00,50.7,21.2,29.79,NW,319,0.0,12.0,31,0.00,,---,0.16,VWS V14.01,2013-01-31 18:35:00,
2013-01-31 13:36:00,50.7,21.2,29.79,NW,319,0.0,12.0,31,0.00,,---,0.16,VWS V14.01,2013-01-31 18:36:00,
2013-01-31 13:40:00,51.1,20.8,29.79,North,359,0.0,5.0,30,0.00,,---,0.16,VWS V14.01,2013-01-31 18:40:00,
2013-01-31 13:41:00,51.1,20.8,29.79,NW,322,2.0,5.0,30,0.00,,---,0.16,VWS V14.01,2013-01-31 18:41:00,
2013-01-31 13:45:00,51.1,20.0,29.78,NNW,337,0.0,0.0,29,0.00,,---,0.16,VWS V14.01,2013-01-31 18:45:00,
2013-01-31 13:46:00,51.1,19.1,29.78,North,8,0.0,0.0,28,0.00,,---,0.16,VWS V14.01,2013-01-31 18:46:00,
2013-01-31 13:50:00,51.4,23.3,29.78,North,6,1.0,3.0,33,0.00,,---,0.16,VWS V14.01,2013-01-31 18:50:00,
2013-01-31 13:51:00,51.4,23.3,29.78,North,349,0.0,3.0,33,0.00,,---,0.16,VWS V14.01,2013-01-31 18:51:00,
2013-01-31 13:55:00,51.1,21.5,29.78,SSW,195,0.0,3.0,31,0.00,,---,0.16,VWS V14.01,2013-01-31 18:55:00,
2013-01-31 13:56:00,51.0,21.5,29.78,North,0,0.0,3.0,31,0.00,,---,0.16,VWS V14.01,2013-01-31 18:56:00,
2013-01-31 14:00:00,51.4,19.4,29.79,NW,322,2.0,6.0,28,0.00,,---,0.16,VWS V14.01,2013-01-31 19:00:00,
2013-01-31 14:01:00,51.4,21.0,29.78,NW,308,0.0,0.0,30,0.00,,---,0.16,VWS V14.01,2013-01-31 19:01:00,
2013-01-31 14:05:00,51.3,21.7,29.79,ESE,114,0.0,8.0,31,0.00,,---,0.16,VWS V14.01,2013-01-31 19:05:00,
2013-01-31 14:06:00,51.1,21.5,29.79,ESE,116,0.0,8.0,31,0.00,,---,0.16,VWS V14.01,2013-01-31 19:06:00,
2013-01-31 14:10:00,51.7,20.5,29.79,SSW,208,0.0,7.0,29,0.00,,---,0.16,VWS V14.01,2013-01-31 19:10:00,
2013-01-31 14:11:00,51.7,21.3,29.79,SSW,210,0.0,7.0,30,0.00,,---,0.16,VWS V14.01,2013-01-31 19:11:00,
2013-01-31 14:15:00,51.7,19.7,29.80,NNE,13,0.0,1.0,28,0.00,,---,0.16,VWS V14.01,2013-01-31 19:15:00,
2013-01-31 14:16:00,51.7,19.7,29.80,NNW,344,0.0,1.0,28,0.00,,---,0.16,VWS V14.01,2013-01-31 19:16:00,
2013-01-31 14:20:00,51.0,19.1,29.80,NW,308,0.0,3.0,28,0.00,,---,0.16,VWS V14.01,2013-01-31 19:20:00,
2013-01-31 14:21:00,51.6,19.6,29.80,NNW,333,0.0,3.0,28,0.00,,---,0.16,VWS V14.01,2013-01-31 19:21:00,
2013-01-31 14:25:00,50.1,18.3,29.80,North,3,0.0,10.0,28,0.00,,---,0.16,VWS V14.01,2013-01-31 19:25:00,
2013-01-31 14:26:00,49.9,18.1,29.80,NNW,333,0.0,10.0,28,0.00,,---,0.16,VWS V14.01,2013-01-31 19:26:00,
2013-01-31 14:30:00,49.5,16.9,29.80,NNW,329,0.0,8.0,27,0.00,,---,0.16,VWS V14.01,2013-01-31 19:30:00,
2013-01-31 14:31:00,49.6,17.0,29.80,North,3,1.0,8.0,27,0.00,,---,0.16,VWS V14.01,2013-01-31 19:31:00,
2013-01-31 14:35:00,49.8,18.8,29.80,NE,54,0.0,1.0,29,0.00,,---,0.16,VWS V14.01,2013-01-31 19:35:00,
2013-01-31 14:36:00,49.6,17.9,29.80,North,353,0.0,1.0,28,0.00,,---,0.16,VWS V14.01,2013-01-31 19:36:00,
2013-01-31 14:40:00,50.2,18.4,29.80,NW,322,5.0,5.0,28,0.00,,---,0.16,VWS V14.01,2013-01-31 19:40:00,
2013-01-31 14:41:00,50.2,19.2,29.80,NNE,28,0.0,5.0,29,0.00,,---,0.16,VWS V14.01,2013-01-31 19:41:00,
2013-01-31 14:45:00,49.2,17.5,29.80,NE,41,0.0,8.0,28,0.00,,---,0.16,VWS V14.01,2013-01-31 19:45:00,
2013-01-31 14:46:00,49.4,16.8,29.80,North,354,0.0,8.0,27,0.00,,---,0.16,VWS V14.01,2013-01-31 19:46:00,
2013-01-31 14:50:00,48.9,17.2,29.80,West,264,0.0,4.0,28,0.00,,---,0.16,VWS V14.01,2013-01-31 19:50:00,
2013-01-31 14:51:00,48.9,17.2,29.80,North,359,0.0,4.0,28,0.00,,---,0.16,VWS V14.01,2013-01-31 19:51:00,
2013-01-31 14:55:00,48.5,16.9,29.80,NE,49,0.0,7.0,28,0.00,,---,0.16,VWS V14.01,2013-01-31 19:55:00,
2013-01-31 14:56:00,48.6,16.1,29.80,NW,306,0.0,0.0,27,0.00,,---,0.16,VWS V14.01,2013-01-31 19:56:00,
2013-01-31 15:00:00,48.3,16.7,29.82,NNW,346,0.0,10.0,28,0.00,,---,0.16,VWS V14.01,2013-01-31 20:00:00,
2013-01-31 15:01:00,48.5,16.9,29.80,NNW,332,0.0,10.0,28,0.00,,---,0.16,VWS V14.01,2013-01-31 20:01:00,
2013-01-31 15:05:00,48.2,16.6,29.82,WNW,294,0.0,7.0,28,0.00,,---,0.16,VWS V14.01,2013-01-31 20:05:00,
2013-01-31 15:06:00,48.2,16.6,29.82,NNW,332,0.0,7.0,28,0.00,,---,0.16,VWS V14.01,2013-01-31 20:06:00,
2013-01-31 15:10:00,48.0,15.6,29.82,NW,306,0.0,6.0,27,0.00,,---,0.16,VWS V14.01,2013-01-31 20:10:00,
2013-01-31 15:11:00,48.2,16.6,29.82,NW,312,5.0,6.0,28,0.00,,---,0.16,VWS V14.01,2013-01-31 20:11:00,
2013-01-31 15:15:00,48.2,19.0,29.83,East,90,0.0,11.0,31,0.00,,---,0.16,VWS V14.01,2013-01-31 20:15:00,
2013-01-31 15:16:00,48.2,16.6,29.82,ESE,106,5.0,11.0,28,0.00,,---,0.16,VWS V14.01,2013-01-31 20:16:00,
2013-01-31 15:20:00,48.3,16.7,29.83,NW,306,0.0,3.0,28,0.00,,---,0.16,VWS V14.01,2013-01-31 20:20:00,
2013-01-31 15:21:00,48.3,18.3,29.83,North,357,0.0,1.0,30,0.00,,---,0.16,VWS V14.01,2013-01-31 20:21:00,
2013-01-31 15:25:00,48.2,15.8,29.83,North,354,0.0,3.0,27,0.00,,---,0.16,VWS V14.01,2013-01-31 20:25:00,
2013-01-31 15:26:00,48.3,15.9,29.83,North,0,2.0,3.0,27,0.00,,---,0.16,VWS V14.01,2013-01-31 20:26:00,
2013-01-31 15:30:00,48.2,19.0,29.83,North,357,0.0,0.0,31,0.00,,---,0.16,VWS V14.01,2013-01-31 20:30:00,
2013-01-31 15:31:00,48.2,18.2,29.83,ENE,58,0.0,0.0,30,0.00,,---,0.16,VWS V14.01,2013-01-31 20:31:00,
2013-01-31 15:35:00,48.2,17.5,29.83,East,85,0.0,8.0,29,0.00,,---,0.16,VWS V14.01,2013-01-31 20:35:00,
2013-01-31 15:36:00,48.3,17.5,29.83,WNW,298,1.0,7.0,29,0.00,,---,0.16,VWS V14.01,2013-01-31 20:36:00,
2013-01-31 15:40:00,48.0,18.8,29.83,North,0,0.0,6.0,31,0.00,,---,0.16,VWS V14.01,2013-01-31 20:40:00,
2013-01-31 15:41:00,48.2,19.0,29.83,NW,315,3.0,6.0,31,0.00,,---,0.16,VWS V14.01,2013-01-31 20:41:00,
2013-01-31 15:45:00,48.0,16.5,29.84,NNE,20,0.0,7.0,28,0.00,,---,0.16,VWS V14.01,2013-01-31 20:45:00,
2013-01-31 15:46:00,48.0,18.1,29.83,East,92,2.0,7.0,30,0.00,,---,0.16,VWS V14.01,2013-01-31 20:46:00,
2013-01-31 15:50:00,48.0,18.8,29.84,NE,48,0.0,3.0,31,0.00,,---,0.16,VWS V14.01,2013-01-31 20:50:00,
2013-01-31 15:51:00,48.0,18.1,29.84,NE,44,0.0,3.0,30,0.00,,---,0.16,VWS V14.01,2013-01-31 20:51:00,
2013-01-31 15:55:00,47.9,19.5,29.84,North,0,0.0,6.0,32,0.00,,---,0.16,VWS V14.01,2013-01-31 20:55:00,
2013-01-31 15:56:00,47.9,18.7,29.84,West,271,0.0,6.0,31,0.00,,---,0.16,VWS V14.01,2013-01-31 20:56:00,
2013-01-31 16:00:00,47.7,20.0,29.84,NW,322,1.0,5.0,33,0.00,,---,0.16,VWS V14.01,2013-01-31 21:00:00,
2013-01-31 16:01:00,47.7,18.6,29.84,NE,42,0.0,5.0,31,0.00,,---,0.16,VWS V14.01,2013-01-31 21:01:00,
2013-01-31 16:05:00,47.6,20.6,29.84,North,353,0.0,1.0,34,0.00,,---,0.16,VWS V14.01,2013-01-31 21:05:00,
2013-01-31 16:06:00,47.6,19.2,29.84,NNW,342,0.0,1.0,32,0.00,,---,0.16,VWS V14.01,2013-01-31 21:06:00,
2013-01-31 16:10:00,47.1,18.0,29.84,NNW,329,0.0,2.0,31,0.00,,---,0.16,VWS V14.01,2013-01-31 21:10:00,
2013-01-31 16:11:00,47.3,19.0,29.84,WNW,284,0.0,2.0,32,0.00,,---,0.16,VWS V14.01,2013-01-31 21:11:00,
2013-01-31 16:15:00,46.8,19.9,29.85,North,10,0.0,1.0,34,0.00,,---,0.16,VWS V14.01,2013-01-31 21:15:00,
2013-01-31 16:16:00,46.8,18.5,29.84,North,357,0.0,1.0,32,0.00,,---,0.16,VWS V14.01,2013-01-31 21:16:00,
2013-01-31 16:20:00,46.7,16.9,29.85,NNW,332,0.0,10.0,30,0.00,,---,0.16,VWS V14.01,2013-01-31 21:20:00,
2013-01-31 16:21:00,46.7,18.4,29.85,NNW,328,10.0,10.0,32,0.00,,---,0.16,VWS V14.01,2013-01-31 21:21:00,
2013-01-31 16:25:00,46.7,17.7,29.85,North,353,0.0,6.0,31,0.00,,---,0.16,VWS V14.01,2013-01-31 21:25:00,
2013-01-31 16:26:00,46.7,16.9,29.85,West,265,0.0,6.0,30,0.00,,---,0.16,VWS V14.01,2013-01-31 21:26:00,
2013-01-31 16:30:00,46.7,16.9,29.86,NW,320,0.0,0.0,30,0.00,,---,0.16,VWS V14.01,2013-01-31 21:30:00,
2013-01-31 16:31:00,46.7,17.7,29.85,NW,320,0.0,0.0,31,0.00,,---,0.16,VWS V14.01,2013-01-31 21:31:00,
2013-01-31 16:35:00,46.7,18.4,29.86,NNW,335,0.0,1.0,32,0.00,,---,0.16,VWS V14.01,2013-01-31 21:35:00,
2013-01-31 16:36:00,46.7,19.1,29.86,NNW,332,0.0,1.0,33,0.00,,---,0.16,VWS V14.01,2013-01-31 21:36:00,
2013-01-31 16:40:00,46.5,17.5,29.86,North,357,0.0,0.0,31,0.00,,---,0.16,VWS V14.01,2013-01-31 21:40:00,
2013-01-31 16:41:00,46.5,18.2,29.86,North,354,0.0,0.0,32,0.00,,---,0.16,VWS V14.01,2013-01-31 21:41:00,
2013-01-31 16:45:00,46.4,18.9,29.87,NW,322,0.0,7.0,33,0.00,,---,0.16,VWS V14.01,2013-01-31 21:45:00,
2013-01-31 16:46:00,46.4,18.9,29.86,North,357,0.0,0.0,33,0.00,,---,0.16,VWS V14.01,2013-01-31 21:46:00,
2013-01-31 16:50:00,46.2,18.0,29.87,NW,316,0.0,3.0,32,0.00,,---,0.16,VWS V14.01,2013-01-31 21:50:00,
2013-01-31 16:51:00,46.2,17.2,29.87,NNW,347,3.0,3.0,31,0.00,,---,0.16,VWS V14.01,2013-01-31 21:51:00,
2013-01-31 16:55:00,46.1,19.3,29.87,NNE,21,0.0,6.0,34,0.00,,---,0.16,VWS V14.01,2013-01-31 21:55:00,
2013-01-31 16:56:00,46.1,18.6,29.87,NNW,329,3.0,6.0,33,0.00,,---,0.16,VWS V14.01,2013-01-31 21:56:00,
2013-01-31 17:00:00,46.0,18.5,29.88,North,359,0.0,0.0,33,0.00,,---,0.16,VWS V14.01,2013-01-31 22:00:00,
2013-01-31 17:01:00,46.0,19.9,29.87,North,359,0.0,0.0,35,0.00,,---,0.16,VWS V14.01,2013-01-31 22:01:00,
2013-01-31 17:05:00,45.8,20.4,29.88,NW,315,0.0,0.0,36,0.00,,---,0.16,VWS V14.01,2013-01-31 22:05:00,
2013-01-31 17:06:00,45.8,19.7,29.88,NW,313,0.0,0.0,35,0.00,,---,0.16,VWS V14.01,2013-01-31 22:06:00,
2013-01-31 17:10:00,45.7,20.9,29.88,NNW,337,0.0,0.0,37,0.00,,---,0.16,VWS V14.01,2013-01-31 22:10:00,
2013-01-31 17:11:00,45.7,20.3,29.88,NNW,339,0.0,0.0,36,0.00,,---,0.16,VWS V14.01,2013-01-31 22:11:00,
2013-01-31 17:15:00,45.5,19.5,29.88,NNW,330,0.0,0.0,35,0.00,,---,0.16,VWS V14.01,2013-01-31 22:15:00,
2013-01-31 17:16:00,45.5,20.8,29.88,North,353,0.0,0.0,37,0.00,,---,0.16,VWS V14.01,2013-01-31 22:16:00,
2013-01-31 17:20:00,45.4,19.4,29.88,North,0,0.0,3.0,35,0.00,,---,0.16,VWS V14.01,2013-01-31 22:20:00,
2013-01-31 17:21:00,45.4,19.4,29.88,North,0,0.0,3.0,35,0.00,,---,0.16,VWS V14.01,2013-01-31 22:21:00,
2013-01-31 17:25:00,45.2,20.5,29.88,NNW,335,0.0,0.0,37,0.00,,---,0.16,VWS V14.01,2013-01-31 22:25:00,
2013-01-31 17:26:00,45.2,18.5,29.88,NNW,335,0.0,0.0,34,0.00,,---,0.16,VWS V14.01,2013-01-31 22:26:00,
2013-01-31 17:30:00,44.9,20.2,29.88,NW,318,0.0,0.0,37,0.00,,---,0.16,VWS V14.01,2013-01-31 22:30:00,
2013-01-31 17:31:00,44.9,20.2,29.88,NNE,17,0.0,0.0,37,0.00,,---,0.16,VWS V14.01,2013-01-31 22:31:00,
2013-01-31 17:35:00,44.8,20.1,29.88,NNW,330,0.0,3.0,37,0.00,,---,0.16,VWS V14.01,2013-01-31 22:35:00,
2013-01-31 17:36:00,44.8,20.8,29.88,NNW,330,0.0,3.0,38,0.00,,---,0.16,VWS V14.01,2013-01-31 22:36:00,
2013-01-31 17:40:00,44.5,21.1,29.88,NNW,342,0.0,0.0,39,0.00,,---,0.16,VWS V14.01,2013-01-31 22:40:00,
2013-01-31 17:41:00,44.6,20.6,29.88,NNW,342,0.0,0.0,38,0.00,,---,0.16,VWS V14.01,2013-01-31 22:41:00,
2013-01-31 17:45:00,44.3,20.9,29.89,North,349,0.0,0.0,39,0.00,,---,0.16,VWS V14.01,2013-01-31 22:45:00,
2013-01-31 17:46:00,44.3,20.9,29.88,North,350,0.0,0.0,39,0.00,,---,0.16,VWS V14.01,2013-01-31 22:46:00,
2013-01-31 17:50:00,44.1,20.7,29.89,NNW,332,0.0,0.0,39,0.00,,---,0.16,VWS V14.01,2013-01-31 22:50:00,
2013-01-31 17:51:00,44.1,20.7,29.89,NNW,328,0.0,0.0,39,0.00,,---,0.16,VWS V14.01,2013-01-31 22:51:00,
2013-01-31 17:55:00,43.9,21.2,29.89,NNW,332,0.0,0.0,40,0.00,,---,0.16,VWS V14.01,2013-01-31 22:55:00,
2013-01-31 17:56:00,44.1,21.9,29.89,NNW,333,0.0,0.0,41,0.00,,---,0.16,VWS V14.01,2013-01-31 22:56:00,
2013-01-31 18:00:00,43.8,22.2,29.90,NNW,332,0.0,0.0,42,0.00,,---,0.16,VWS V14.01,2013-01-31 23:00:00,
2013-01-31 18:01:00,43.8,21.6,29.89,NNW,332,0.0,0.0,41,0.00,,---,0.16,VWS V14.01,2013-01-31 23:01:00,
2013-01-31 18:06:00,43.6,21.5,29.90,North,7,0.0,0.0,41,0.00,,---,0.16,VWS V14.01,2013-01-31 23:06:00,
2013-01-31 18:12:00,43.5,22.0,29.90,North,7,0.0,0.0,42,0.00,,---,0.16,VWS V14.01,2013-01-31 23:12:00,
2013-01-31 18:17:00,43.2,22.8,29.90,North,7,0.0,0.0,44,0.00,,---,0.16,VWS V14.01,2013-01-31 23:17:00,
2013-01-31 18:22:00,43.1,23.2,29.90,North,7,0.0,0.0,45,0.00,,---,0.16,VWS V14.01,2013-01-31 23:22:00,
2013-01-31 18:27:00,42.8,24.0,29.90,North,7,0.0,0.0,47,0.00,,---,0.16,VWS V14.01,2013-01-31 23:27:00,
2013-01-31 18:32:00,42.5,22.7,29.92,North,7,0.0,0.0,45,0.00,,---,0.16,VWS V14.01,2013-01-31 23:32:00,
2013-01-31 18:37:00,42.2,22.9,29.92,North,7,0.0,0.0,46,0.00,,---,0.16,VWS V14.01,2013-01-31 23:37:00,
2013-01-31 18:42:00,42.1,21.8,29.92,North,0,0.0,0.0,44,0.00,,---,0.16,VWS V14.01,2013-01-31 23:42:00,
2013-01-31 18:47:00,41.9,23.2,29.92,North,0,0.0,0.0,47,0.00,,---,0.16,VWS V14.01,2013-01-31 23:47:00,
2013-01-31 18:52:00,41.8,22.5,29.92,North,359,0.0,0.0,46,0.00,,---,0.16,VWS V14.01,2013-01-31 23:52:00,
2013-01-31 18:57:00,41.6,21.3,29.92,North,3,0.0,0.0,44,0.00,,---,0.16,VWS V14.01,2013-01-31 23:57:00,
2013-01-31 19:02:00,41.5,22.3,29.93,North,3,0.0,0.0,46,0.00,,---,0.16,VWS V14.01,2013-02-01 00:02:00,
2013-01-31 19:07:00,41.3,22.1,29.93,North,10,0.0,0.0,46,0.00,,---,0.16,VWS V14.01,2013-02-01 00:07:00,
2013-01-31 19:12:00,41.2,21.0,29.93,NNE,18,0.0,0.0,44,0.00,,---,0.16,VWS V14.01,2013-02-01 00:12:00,
2013-01-31 19:17:00,41.1,21.4,29.93,NNE,18,0.0,0.0,45,0.00,,---,0.16,VWS V14.01,2013-02-01 00:17:00,
2013-01-31 19:22:00,41.1,21.9,29.93,NNE,17,0.0,0.0,46,0.00,,---,0.16,VWS V14.01,2013-02-01 00:22:00,
2013-01-31 19:27:00,40.9,21.7,29.93,NNE,17,0.0,0.0,46,0.00,,---,0.16,VWS V14.01,2013-02-01 00:27:00,
2013-01-31 19:32:00,40.8,22.1,29.94,NNE,17,0.0,0.0,47,0.00,,---,0.16,VWS V14.01,2013-02-01 00:32:00,
2013-01-31 19:37:00,40.6,22.0,29.94,NNE,17,0.0,0.0,47,0.00,,---,0.16,VWS V14.01,2013-02-01 00:37:00,
2013-01-31 19:42:00,40.5,21.9,29.94,NNE,17,0.0,0.0,47,0.00,,---,0.16,VWS V14.01,2013-02-01 00:42:00,
2013-01-31 19:47:00,40.5,22.4,29.95,NNE,17,0.0,0.0,48,0.00,,---,0.16,VWS V14.01,2013-02-01 00:47:00,
2013-01-31 19:52:00,40.3,21.7,29.95,NE,37,0.0,0.0,47,0.00,,---,0.16,VWS V14.01,2013-02-01 00:52:00,
2013-01-31 19:57:00,40.2,22.1,29.95,SE,134,0.0,2.0,48,0.00,,---,0.16,VWS V14.01,2013-02-01 00:57:00,
2013-01-31 20:02:00,40.2,22.6,29.95,SE,134,0.0,0.0,49,0.00,,---,0.16,VWS V14.01,2013-02-01 01:02:00,
2013-01-31 20:07:00,40.1,22.5,29.95,East,92,0.0,0.0,49,0.00,,---,0.16,VWS V14.01,2013-02-01 01:07:00,
2013-01-31 20:12:00,39.9,22.3,29.95,East,92,0.0,0.0,49,0.00,,---,0.16,VWS V14.01,2013-02-01 01:12:00,
2013-01-31 20:17:00,39.9,22.8,29.96,NE,44,0.0,0.0,50,0.00,,---,0.16,VWS V14.01,2013-02-01 01:17:00,
2013-01-31 20:22:00,39.9,21.8,29.96,North,0,0.0,0.0,48,0.00,,---,0.16,VWS V14.01,2013-02-01 01:22:00,
2013-01-31 20:27:00,39.9,21.3,29.96,NNW,337,0.0,0.0,47,0.00,,---,0.16,VWS V14.01,2013-02-01 01:27:00,
2013-01-31 20:32:00,40.1,21.5,29.96,NNW,337,0.0,0.0,47,0.00,,---,0.16,VWS V14.01,2013-02-01 01:32:00,
2013-01-31 20:37:00,40.1,20.5,29.96,NW,311,0.0,1.0,45,0.00,,---,0.16,VWS V14.01,2013-02-01 01:37:00,
2013-01-31 20:42:00,40.1,20.5,29.96,NW,311,0.0,0.0,45,0.00,,---,0.16,VWS V14.01,2013-02-01 01:42:00,
2013-01-31 20:47:00,40.1,20.5,29.96,NW,311,0.0,0.0,45,0.00,,---,0.16,VWS V14.01,2013-02-01 01:47:00,
2013-01-31 20:52:00,39.9,20.8,29.96,NW,311,0.0,0.0,46,0.00,,---,0.16,VWS V14.01,2013-02-01 01:52:00,
2013-01-31 20:57:00,39.6,21.0,29.96,NW,311,0.0,0.0,47,0.00,,---,0.16,VWS V14.01,2013-02-01 01:57:00,
2013-01-31 21:02:00,39.5,21.5,29.96,NW,311,0.0,0.0,48,0.00,,---,0.16,VWS V14.01,2013-02-01 02:02:00,
2013-01-31 21:07:00,39.3,21.8,29.96,NW,311,0.0,0.0,49,0.00,,---,0.16,VWS V14.01,2013-02-01 02:07:00,
2013-01-31 21:12:00,39.3,22.2,29.96,NW,311,0.0,0.0,50,0.00,,---,0.16,VWS V14.01,2013-02-01 02:12:00,
2013-01-31 21:17:00,39.1,22.5,29.96,NW,311,0.0,0.0,51,0.00,,---,0.16,VWS V14.01,2013-02-01 02:17:00,
2013-01-31 21:22:00,38.8,22.7,29.96,NW,311,0.0,0.0,52,0.00,,---,0.16,VWS V14.01,2013-02-01 02:22:00,
2013-01-31 21:27:00,38.5,23.8,29.96,NW,311,0.0,0.0,55,0.00,,---,0.16,VWS V14.01,2013-02-01 02:27:00,
2013-01-31 21:32:00,38.3,22.7,29.96,NW,311,0.0,0.0,53,0.00,,---,0.16,VWS V14.01,2013-02-01 02:32:00,
2013-01-31 21:37:00,38.2,22.1,29.96,NW,309,0.0,0.0,52,0.00,,---,0.16,VWS V14.01,2013-02-01 02:37:00,
2013-01-31 21:42:00,38.0,23.3,29.96,NW,309,0.0,0.0,55,0.00,,---,0.16,VWS V14.01,2013-02-01 02:42:00,
2013-01-31 21:47:00,37.9,23.6,29.96,NW,309,0.0,0.0,56,0.00,,---,0.16,VWS V14.01,2013-02-01 02:47:00,
2013-01-31 21:52:00,37.6,23.3,29.96,NW,309,0.0,0.0,56,0.00,,---,0.16,VWS V14.01,2013-02-01 02:52:00,
2013-01-31 21:57:00,37.3,23.1,29.96,NW,309,0.0,0.0,56,0.00,,---,0.16,VWS V14.01,2013-02-01 02:57:00,
2013-01-31 22:02:00,37.2,23.8,29.95,NW,309,0.0,0.0,58,0.00,,---,0.16,VWS V14.01,2013-02-01 03:02:00,
2013-01-31 22:07:00,37.0,23.2,29.95,NW,309,0.0,0.0,57,0.00,,---,0.16,VWS V14.01,2013-02-01 03:07:00,
2013-01-31 22:12:00,37.0,22.4,29.95,WNW,298,0.0,0.0,55,0.00,,---,0.16,VWS V14.01,2013-02-01 03:12:00,
2013-01-31 22:17:00,37.0,24.0,29.95,WNW,298,0.0,0.0,59,0.00,,---,0.16,VWS V14.01,2013-02-01 03:17:00,
2013-01-31 22:22:00,36.8,24.2,29.95,WNW,298,0.0,0.0,60,0.00,,---,0.16,VWS V14.01,2013-02-01 03:22:00,
2013-01-31 22:27:00,36.6,22.0,29.95,WNW,298,0.0,0.0,55,0.00,,---,0.16,VWS V14.01,2013-02-01 03:27:00,
2013-01-31 22:32:00,36.6,24.0,29.96,WNW,298,0.0,0.0,60,0.00,,---,0.16,VWS V14.01,2013-02-01 03:32:00,
2013-01-31 22:37:00,36.5,24.0,29.96,WNW,298,0.0,0.0,60,0.00,,---,0.16,VWS V14.01,2013-02-01 03:37:00,
2013-01-31 22:42:00,36.2,24.1,29.96,WNW,298,0.0,0.0,61,0.00,,---,0.16,VWS V14.01,2013-02-01 03:42:00,
2013-01-31 22:47:00,36.2,24.1,29.96,WNW,298,0.0,0.0,61,0.00,,---,0.16,VWS V14.01,2013-02-01 03:47:00,
2013-01-31 22:52:00,36.0,23.5,29.96,WNW,298,0.0,0.0,60,0.00,,---,0.16,VWS V14.01,2013-02-01 03:52:00,
2013-01-31 22:57:00,35.9,24.5,29.96,WNW,298,0.0,0.0,63,0.00,,---,0.16,VWS V14.01,2013-02-01 03:57:00,
2013-01-31 23:02:00,35.9,24.5,29.96,WNW,298,0.0,0.0,63,0.00,,---,0.16,VWS V14.01,2013-02-01 04:02:00,
2013-01-31 23:07:00,35.9,23.4,29.96,WNW,298,0.0,0.0,60,0.00,,---,0.16,VWS V14.01,2013-02-01 04:07:00,
2013-01-31 23:12:00,35.9,24.5,29.96,WNW,298,0.0,0.0,63,0.00,,---,0.16,VWS V14.01,2013-02-01 04:12:00,
2013-01-31 23:17:00,35.9,23.8,29.97,WNW,298,0.0,0.0,61,0.00,,---,0.16,VWS V14.01,2013-02-01 04:17:00,
2013-01-31 23:22:00,35.8,24.5,29.97,WNW,298,0.0,0.0,63,0.00,,---,0.16,VWS V14.01,2013-02-01 04:22:00,
2013-01-31 23:27:00,35.8,23.7,29.97,WNW,298,0.0,0.0,61,0.00,,---,0.16,VWS V14.01,2013-02-01 04:27:00,
2013-01-31 23:32:00,35.6,23.5,29.96,WNW,301,0.0,0.0,61,0.00,,---,0.16,VWS V14.01,2013-02-01 04:32:00,
2013-01-31 23:37:00,35.6,23.9,29.96,WNW,301,0.0,0.0,62,0.00,,---,0.16,VWS V14.01,2013-02-01 04:37:00,
2013-01-31 23:42:00,35.5,23.4,29.96,WNW,301,0.0,0.0,61,0.00,,---,0.16,VWS V14.01,2013-02-01 04:42:00,
2013-01-31 23:47:00,35.5,24.5,29.97,WNW,301,0.0,0.0,64,0.00,,---,0.16,VWS V14.01,2013-02-01 04:47:00,
2013-01-31 23:52:00,35.5,24.5,29.97,WNW,301,0.0,0.0,64,0.00,,---,0.16,VWS V14.01,2013-02-01 04:52:00,
2013-01-31 23:57:00,35.5,24.2,29.97,WNW,301,0.0,0.0,63,0.00,,---,0.16,VWS V14.01,2013-02-01 04:57:00,